Aérodrome :
LOGIN :

S'inscrire | Disclaimer

   EN    FR    IT 

 










Légende :    VFR   VFR Marginal   IFR   IFR Intensif   IFR Très Intensif
Visi : 
Plafond : 
>= 8 km
>= 3000ft
5 à 8 km
1000 à 3000 ft
1500m à 5 km
500 à 1000 ft
800 à 1500m
200 à 500 ft
< 800m
< 200 ft
Symboles :   Orages  Brouillard  Fortes neiges  Fortes précipitations  Vent > 20 kt
SIGMETs :   Divers  Orages  Givrage  Turbulence  Onde Orograph.  Cendres Volcan.






- Altitude de l'aérodrome : 634 ft
- Code IATA : MXX


ESKM - Mora

DERNIER METAR :
  • 231850Z AUTO 17004KT 140V210 9999 R16/P2000N R34///// OVC022/// 15/14 Q0999

METARs EXPIRÉS :
  • 231820Z AUTO 17003KT 9999 R16/P2000N R34///// BKN024/// OVC037/// 15/14 Q0999
  • 231750Z AUTO 15003KT 9999 R16/P2000N R34///// BKN024/// OVC030/// 15/14 Q0999
  • 231720Z AUTO VRB03KT 9999 R16/P2000N R34///// OVC023/// 16/14 Q0998
  • 231650Z AUTO 15003KT 9999 R16/P2000N R34///// SCT023/// BKN030/// OVC092/// 15/14 Q0998
  • 231620Z AUTO 18006KT 150V220 9999 R16/P2000N R34///// SCT026/// OVC037/// 16/14 Q0998

TAF N/A



MET'MAP, la Météo Aéronautique d'un coup d'oeil ! - Copyright ORBIFLY Décembre 2007 - Disclaimer

ORBIFLY MET'MAP TEAM :

Programmation & Développement : Alexandra Zaïnal
Sur une idée originale de : Baudouin d'Aumeries
Assistance à la programmation : Marc-Olivier Méhu
Soutien technique & logistique : Manuel Goepfert

Contact : metmap@orbifly.com




SOURCES & CREDITS :

   NOAA